createdAt,value
2023-06-29T00:00:31.017Z,84.85
2023-06-29T00:01:31.046Z,84.55
2023-06-29T00:02:30.975Z,84.25
2023-06-29T00:03:31.003Z,84.15
2023-06-29T00:04:30.973Z,84.25
2023-06-29T00:05:30.935Z,84.05
2023-06-29T00:06:30.926Z,83.95
2023-06-29T00:07:30.947Z,84.05
2023-06-29T00:08:31.640Z,84.05
2023-06-29T00:09:30.871Z,84.05
2023-06-29T00:10:30.884Z,84.35
2023-06-29T00:11:30.844Z,84.65
2023-06-29T00:12:30.833Z,84.55
2023-06-29T00:13:30.809Z,84.75
2023-06-29T00:14:30.830Z,85.05
2023-06-29T00:15:30.806Z,85.16
2023-06-29T00:16:30.787Z,85.46
2023-06-29T00:17:30.796Z,85.16
2023-06-29T00:18:30.773Z,84.55
2023-06-29T00:19:39.426Z,84.55
2023-06-29T00:20:30.706Z,84.15
2023-06-29T00:21:30.708Z,83.95
2023-06-29T00:22:30.742Z,83.95
2023-06-29T00:23:30.664Z,83.95
2023-06-29T00:24:30.677Z,83.75
2023-06-29T00:25:30.671Z,84.05
2023-06-29T00:26:30.663Z,84.05
2023-06-29T00:27:30.658Z,84.15
2023-06-29T00:28:30.686Z,84.35
2023-06-29T00:29:30.620Z,84.75
2023-06-29T00:30:30.870Z,85.36
2023-06-29T00:31:30.554Z,85.05
2023-06-29T00:32:30.583Z,85.05
2023-06-29T00:33:30.541Z,84.95
2023-06-29T00:34:30.562Z,84.95
2023-06-29T00:35:30.500Z,83.95
2023-06-29T00:36:30.547Z,84.45
2023-06-29T00:37:30.485Z,83.85
2023-06-29T00:38:30.513Z,83.95
2023-06-29T00:39:30.475Z,83.75
2023-06-29T00:40:30.476Z,83.95
2023-06-29T00:41:30.430Z,84.05
2023-06-29T00:42:30.442Z,83.65
2023-06-29T00:43:30.445Z,83.35
2023-06-29T00:44:30.426Z,83.85
2023-06-29T00:45:30.372Z,83.75
2023-06-29T00:46:30.395Z,83.85
2023-06-29T00:47:30.421Z,83.65
2023-06-29T00:48:30.331Z,83.95
2023-06-29T00:49:30.322Z,83.85
2023-06-29T00:50:30.337Z,83.75
2023-06-29T00:51:30.309Z,83.75
2023-06-29T00:52:30.298Z,83.75
2023-06-29T00:53:30.301Z,83.55
2023-06-29T00:54:30.334Z,83.75
2023-06-29T00:55:30.248Z,83.85
2023-06-29T00:56:30.222Z,83.95
2023-06-29T00:57:30.240Z,84.35
2023-06-29T00:58:30.211Z,84.45
2023-06-29T00:59:30.179Z,84.55
2023-06-29T01:00:30.245Z,84.35
2023-06-29T01:01:30.180Z,84.49
2023-06-29T01:02:30.207Z,84.59
2023-06-29T01:03:30.277Z,84.99
2023-06-29T01:04:30.144Z,85.10
2023-06-29T01:05:30.108Z,85.10
2023-06-29T01:06:30.083Z,85.50
2023-06-29T01:07:30.189Z,85.70
2023-06-29T01:08:30.133Z,85.50
2023-06-29T01:09:30.040Z,85.39
2023-06-29T01:10:30.052Z,85.39
2023-06-29T01:11:30.101Z,85.50
2023-06-29T01:12:30.053Z,86.00
2023-06-29T01:13:30.005Z,85.80
2023-06-29T01:14:29.985Z,85.64
2023-06-29T01:15:29.981Z,85.84
2023-06-29T01:16:30.017Z,85.53
2023-06-29T01:17:30.015Z,85.24
2023-06-29T01:18:29.997Z,85.44
2023-06-29T01:19:30.006Z,85.44
2023-06-29T01:20:29.912Z,85.64
2023-06-29T01:21:29.927Z,85.64
2023-06-29T01:22:30.595Z,85.33
2023-06-29T01:23:30.031Z,85.14
2023-06-29T01:24:29.853Z,84.94
2023-06-29T01:25:30.536Z,84.49
2023-06-29T01:26:30.817Z,84.89
2023-06-29T01:27:29.798Z,84.59
2023-06-29T01:28:29.980Z,84.29
2023-06-29T01:29:29.808Z,84.69
2023-06-29T01:30:29.808Z,84.80
2023-06-29T01:31:29.794Z,84.89
2023-06-29T01:32:29.812Z,84.89
2023-06-29T01:33:29.742Z,85.10
2023-06-29T01:34:29.780Z,85.30
2023-06-29T01:35:29.750Z,85.39
2023-06-29T01:36:29.721Z,85.50
2023-06-29T01:37:29.717Z,85.80
2023-06-29T01:38:29.727Z,85.70
2023-06-29T01:39:29.687Z,85.50
2023-06-29T01:40:29.697Z,84.89
2023-06-29T01:41:29.679Z,84.49
2023-06-29T01:42:29.632Z,84.39
2023-06-29T01:43:29.606Z,84.49
2023-06-29T01:44:29.596Z,84.39
2023-06-29T01:45:29.602Z,84.59
2023-06-29T01:46:29.562Z,84.09
2023-06-29T01:47:29.612Z,83.79
2023-06-29T01:48:29.533Z,83.49
2023-06-29T01:49:44.224Z,83.39
2023-06-29T01:50:29.518Z,83.79
2023-06-29T01:51:29.577Z,83.89
2023-06-29T01:52:29.480Z,83.45
2023-06-29T01:53:32.665Z,83.04
2023-06-29T01:54:29.483Z,83.45
2023-06-29T01:55:29.444Z,83.55
2023-06-29T01:56:29.484Z,83.95
2023-06-29T01:57:29.491Z,83.75
2023-06-29T01:58:29.426Z,83.45
2023-06-29T01:59:29.445Z,83.45
2023-06-29T02:00:29.383Z,83.25
2023-06-29T02:01:29.367Z,83.25
2023-06-29T02:02:29.445Z,83.25
2023-06-29T02:03:29.462Z,83.15
2023-06-29T02:04:29.364Z,83.65
2023-06-29T02:05:29.296Z,83.85
2023-06-29T02:06:29.297Z,84.05
2023-06-29T02:07:29.445Z,83.95
2023-06-29T02:08:29.253Z,84.05
2023-06-29T02:09:29.260Z,84.25
2023-06-29T02:10:29.276Z,84.45
2023-06-29T02:11:29.237Z,84.45
2023-06-29T02:12:29.184Z,84.29
2023-06-29T02:13:29.209Z,83.99
2023-06-29T02:14:29.238Z,83.99
2023-06-29T02:15:29.218Z,84.15
2023-06-29T02:16:29.303Z,83.79
2023-06-29T02:17:29.222Z,83.45
2023-06-29T02:18:29.180Z,83.25
2023-06-29T02:19:29.109Z,82.95
2023-06-29T02:20:29.078Z,83.35
2023-06-29T02:21:29.089Z,83.55
2023-06-29T02:22:29.135Z,83.35
2023-06-29T02:23:29.105Z,83.25
2023-06-29T02:24:29.083Z,83.45
2023-06-29T02:25:29.053Z,84.15
2023-06-29T02:26:29.069Z,83.95
2023-06-29T02:27:29.003Z,82.95
2023-06-29T02:28:29.007Z,82.75
2023-06-29T02:29:28.995Z,82.34
2023-06-29T02:30:28.980Z,81.84
2023-06-29T02:31:29.013Z,81.84
2023-06-29T02:32:29.516Z,81.84
2023-06-29T02:33:28.957Z,81.74
2023-06-29T02:34:28.907Z,81.70
2023-06-29T02:35:28.919Z,81.50
2023-06-29T02:36:28.914Z,81.20
2023-06-29T02:37:28.867Z,81.30
2023-06-29T02:38:28.844Z,81.60
2023-06-29T02:39:28.838Z,81.80
2023-06-29T02:40:28.959Z,81.60
2023-06-29T02:41:28.807Z,81.70
2023-06-29T02:42:28.791Z,81.30
2023-06-29T02:43:28.980Z,81.50
2023-06-29T02:44:28.838Z,81.40
2023-06-29T02:45:28.785Z,81.50
2023-06-29T02:46:28.731Z,81.60
2023-06-29T02:47:28.820Z,81.70
2023-06-29T02:48:28.716Z,81.80
2023-06-29T02:49:28.793Z,81.20
2023-06-29T02:50:28.693Z,81.30
2023-06-29T02:51:28.721Z,81.60
2023-06-29T02:52:28.665Z,81.30
2023-06-29T02:53:29.542Z,81.60
2023-06-29T02:54:28.767Z,81.90
2023-06-29T02:55:28.626Z,82.20
2023-06-29T02:56:28.740Z,82.00
2023-06-29T02:57:28.607Z,82.14
2023-06-29T02:58:28.606Z,82.24
2023-06-29T02:59:28.553Z,82.54
2023-06-29T03:00:28.563Z,82.64
2023-06-29T03:01:28.690Z,83.15
2023-06-29T03:02:28.720Z,82.95
2023-06-29T03:03:28.579Z,82.84
2023-06-29T03:04:28.550Z,82.45
2023-06-29T03:05:28.689Z,82.14
2023-06-29T03:06:28.475Z,82.34
2023-06-29T03:07:28.507Z,82.14
2023-06-29T03:08:30.228Z,82.04
2023-06-29T03:09:28.620Z,82.24
2023-06-29T03:10:29.190Z,82.75
2023-06-29T03:11:28.408Z,82.75
2023-06-29T03:12:28.388Z,82.34
2023-06-29T03:13:28.499Z,82.45
2023-06-29T03:14:28.484Z,82.54
2023-06-29T03:15:28.360Z,82.34
2023-06-29T03:16:28.337Z,81.84
2023-06-29T03:17:28.409Z,81.84
2023-06-29T03:18:28.333Z,82.24
2023-06-29T03:19:36.044Z,82.34
2023-06-29T03:20:28.278Z,82.45
2023-06-29T03:21:28.285Z,82.34
2023-06-29T03:22:28.273Z,82.04
2023-06-29T03:23:28.499Z,82.14
2023-06-29T03:24:28.222Z,82.04
2023-06-29T03:25:28.319Z,81.94
2023-06-29T03:26:28.306Z,81.64
2023-06-29T03:27:28.191Z,81.80
2023-06-29T03:28:28.645Z,81.60
2023-06-29T03:29:28.250Z,81.40
2023-06-29T03:30:28.150Z,81.20
2023-06-29T03:31:28.328Z,81.30
2023-06-29T03:32:28.311Z,81.40
2023-06-29T03:33:28.437Z,81.60
2023-06-29T03:34:28.471Z,82.00
2023-06-29T03:35:28.076Z,82.00
2023-06-29T03:36:28.092Z,82.10
2023-06-29T03:37:28.045Z,81.60
2023-06-29T03:38:28.087Z,81.90
2023-06-29T03:39:28.461Z,82.20
2023-06-29T03:40:28.009Z,82.14
2023-06-29T03:41:27.991Z,82.04
2023-06-29T03:42:27.991Z,82.04
2023-06-29T03:43:27.968Z,81.94
2023-06-29T03:44:27.967Z,82.54
2023-06-29T03:45:28.109Z,82.64
2023-06-29T03:46:28.014Z,82.84
2023-06-29T03:47:27.971Z,82.84
2023-06-29T03:48:28.018Z,82.95
2023-06-29T03:49:27.917Z,82.95
2023-06-29T03:50:27.911Z,83.15
2023-06-29T03:51:27.851Z,83.25
2023-06-29T03:52:27.863Z,83.55
2023-06-29T03:53:28.080Z,83.45
2023-06-29T03:54:27.829Z,83.45
2023-06-29T03:55:27.810Z,83.75
2023-06-29T03:56:27.795Z,83.95
2023-06-29T03:57:27.851Z,83.65
2023-06-29T03:58:27.807Z,83.65
2023-06-29T03:59:28.267Z,83.15
2023-06-29T04:00:27.739Z,83.15
2023-06-29T04:01:27.920Z,83.15
2023-06-29T04:02:27.832Z,83.25
2023-06-29T04:03:27.866Z,82.84
2023-06-29T04:04:27.751Z,82.84
2023-06-29T04:05:27.679Z,82.64
2023-06-29T04:06:27.649Z,82.84
2023-06-29T04:07:27.761Z,82.84
2023-06-29T04:08:27.625Z,83.04
2023-06-29T04:09:27.641Z,82.84
2023-06-29T04:10:27.623Z,83.04
2023-06-29T04:11:27.579Z,82.95
2023-06-29T04:12:27.594Z,82.64
2023-06-29T04:13:28.412Z,82.64
2023-06-29T04:14:27.553Z,82.34
2023-06-29T04:15:27.524Z,82.34
2023-06-29T04:16:27.653Z,82.75
2023-06-29T04:17:27.673Z,82.81
2023-06-29T04:18:27.665Z,83.01
2023-06-29T04:19:28.180Z,83.11
2023-06-29T04:20:27.520Z,82.90
2023-06-29T04:21:27.458Z,83.21
2023-06-29T04:22:27.430Z,83.21
2023-06-29T04:23:27.424Z,83.41
2023-06-29T04:24:27.382Z,82.40
2023-06-29T04:25:27.417Z,82.60
2023-06-29T04:26:27.395Z,82.51
2023-06-29T04:27:27.437Z,82.70
2023-06-29T04:28:27.619Z,82.70
2023-06-29T04:29:27.364Z,82.70
2023-06-29T04:30:27.390Z,82.70
2023-06-29T04:31:27.476Z,82.90
2023-06-29T04:32:27.310Z,83.11
2023-06-29T04:33:27.280Z,83.11
2023-06-29T04:34:27.346Z,82.90
2023-06-29T04:35:27.311Z,83.21
2023-06-29T04:36:27.256Z,83.31
2023-06-29T04:37:27.246Z,83.01
2023-06-29T04:38:27.232Z,82.90
2023-06-29T04:39:27.220Z,83.01
2023-06-29T04:40:27.213Z,83.21
2023-06-29T04:41:27.212Z,83.31
2023-06-29T04:42:27.196Z,84.31
2023-06-29T04:43:27.156Z,84.01
2023-06-29T04:44:27.123Z,84.01
2023-06-29T04:45:27.134Z,84.31
2023-06-29T04:46:27.174Z,84.41
2023-06-29T04:47:27.223Z,84.61
2023-06-29T04:48:27.140Z,84.81
2023-06-29T04:49:28.079Z,85.22
2023-06-29T04:50:27.334Z,85.16
2023-06-29T04:51:27.164Z,85.05
2023-06-29T04:52:27.078Z,85.86
2023-06-29T04:53:27.069Z,85.25
2023-06-29T04:54:26.985Z,85.16
2023-06-29T04:55:27.005Z,85.05
2023-06-29T04:56:26.956Z,85.05
2023-06-29T04:57:29.494Z,85.25
2023-06-29T04:58:26.937Z,85.25
2023-06-29T04:59:26.917Z,85.56
2023-06-29T05:00:26.917Z,85.46
2023-06-29T05:01:26.917Z,86.06
2023-06-29T05:02:26.914Z,86.76
2023-06-29T05:03:26.989Z,86.46
2023-06-29T05:04:26.924Z,85.86
2023-06-29T05:05:26.851Z,86.76
2023-06-29T05:06:26.987Z,86.26
2023-06-29T05:07:26.950Z,86.16
2023-06-29T05:08:26.930Z,85.46
2023-06-29T05:09:26.846Z,86.16
2023-06-29T05:10:26.845Z,86.16
2023-06-29T05:11:26.859Z,86.56
2023-06-29T05:12:26.853Z,85.96
2023-06-29T05:13:26.761Z,85.66
2023-06-29T05:14:26.698Z,85.72
2023-06-29T05:15:26.716Z,85.61
2023-06-29T05:16:26.757Z,85.92
2023-06-29T05:17:26.718Z,85.61
2023-06-29T05:18:26.682Z,85.82
2023-06-29T05:19:26.720Z,85.47
2023-06-29T05:20:26.621Z,85.58
2023-06-29T05:21:26.605Z,85.47
2023-06-29T05:22:26.607Z,85.17
2023-06-29T05:23:26.596Z,84.97
2023-06-29T05:24:26.722Z,85.17
2023-06-29T05:25:26.563Z,84.77
2023-06-29T05:26:26.564Z,84.47
2023-06-29T05:27:26.536Z,84.37
2023-06-29T05:28:26.626Z,84.07
2023-06-29T05:29:26.534Z,84.27
2023-06-29T05:30:26.598Z,83.77
2023-06-29T05:31:26.581Z,83.87
2023-06-29T05:32:26.500Z,84.17
2023-06-29T05:33:26.505Z,83.67
2023-06-29T05:34:26.475Z,84.07
2023-06-29T05:35:26.488Z,84.07
2023-06-29T05:36:26.409Z,83.97
2023-06-29T05:37:26.470Z,84.07
2023-06-29T05:38:26.514Z,84.23
2023-06-29T05:39:26.574Z,84.83
2023-06-29T05:40:26.538Z,84.74
2023-06-29T05:41:26.340Z,84.53
2023-06-29T05:42:26.378Z,84.83
2023-06-29T05:43:26.383Z,85.03
2023-06-29T05:44:26.306Z,84.93
2023-06-29T05:45:26.339Z,84.69
2023-06-29T05:46:26.439Z,84.69
2023-06-29T05:47:26.306Z,84.89
2023-06-29T05:48:26.276Z,84.79
2023-06-29T05:49:26.286Z,84.19
2023-06-29T05:50:26.389Z,83.69
2023-06-29T05:51:26.279Z,84.09
2023-06-29T05:52:26.323Z,83.49
2023-06-29T05:53:26.193Z,83.53
2023-06-29T05:54:26.189Z,83.79
2023-06-29T05:55:26.242Z,83.79
2023-06-29T05:56:26.196Z,83.89
2023-06-29T05:57:26.385Z,83.79
2023-06-29T05:58:26.111Z,83.89
2023-06-29T05:59:26.176Z,83.79
2023-06-29T06:00:26.132Z,83.99
2023-06-29T06:01:26.189Z,83.69
2023-06-29T06:02:26.140Z,83.89
2023-06-29T06:03:26.181Z,83.59
2023-06-29T06:04:26.052Z,84.29
2023-06-29T06:05:26.234Z,84.35
2023-06-29T06:06:26.382Z,84.45
2023-06-29T06:07:26.115Z,84.25
2023-06-29T06:08:26.022Z,83.45
2023-06-29T06:09:25.984Z,83.25
2023-06-29T06:10:25.987Z,83.35
2023-06-29T06:11:25.984Z,83.25
2023-06-29T06:12:25.967Z,83.25
2023-06-29T06:13:25.920Z,82.81
2023-06-29T06:14:25.938Z,82.61
2023-06-29T06:15:25.945Z,82.21
2023-06-29T06:16:25.964Z,82.11
2023-06-29T06:17:25.979Z,82.01
2023-06-29T06:18:25.874Z,82.11
2023-06-29T06:19:25.855Z,82.11
2023-06-29T06:20:25.858Z,82.21
2023-06-29T06:21:25.824Z,82.01
2023-06-29T06:22:25.855Z,82.51
2023-06-29T06:23:25.835Z,82.61
2023-06-29T06:24:25.820Z,82.61
2023-06-29T06:25:25.808Z,82.51
2023-06-29T06:26:25.813Z,83.11
2023-06-29T06:27:25.810Z,82.61
2023-06-29T06:28:25.711Z,82.41
2023-06-29T06:29:25.746Z,82.11
2023-06-29T06:30:25.739Z,82.61
2023-06-29T06:31:33.358Z,82.31
2023-06-29T06:32:26.716Z,82.51
2023-06-29T06:33:25.676Z,82.71
2023-06-29T06:34:25.625Z,82.87
2023-06-29T06:35:25.692Z,82.87
2023-06-29T06:36:25.630Z,82.17
2023-06-29T06:37:25.588Z,81.97
2023-06-29T06:38:34.421Z,81.77
2023-06-29T06:39:26.736Z,81.67
2023-06-29T06:40:25.598Z,81.73
2023-06-29T06:41:25.588Z,81.23
2023-06-29T06:42:25.509Z,81.43
2023-06-29T06:43:25.512Z,80.89
2023-06-29T06:44:25.541Z,80.29
2023-06-29T06:45:25.523Z,81.09
2023-06-29T06:46:25.521Z,80.29
2023-06-29T06:47:25.527Z,80.59
2023-06-29T06:48:25.445Z,80.39
2023-06-29T06:49:25.462Z,80.43
2023-06-29T06:50:25.485Z,80.63
2023-06-29T06:51:25.472Z,80.43
2023-06-29T06:52:25.502Z,80.83
2023-06-29T06:53:25.437Z,81.03
2023-06-29T06:54:25.418Z,81.23
2023-06-29T06:55:25.406Z,81.43
2023-06-29T06:56:25.397Z,81.43
2023-06-29T06:57:25.354Z,81.33
2023-06-29T06:58:25.340Z,81.43
2023-06-29T06:59:25.323Z,82.13
2023-06-29T07:00:25.422Z,80.93
2023-06-29T07:01:25.301Z,81.93
2023-06-29T07:02:25.392Z,81.93
2023-06-29T07:03:25.316Z,81.73
2023-06-29T07:04:25.293Z,81.83
2023-06-29T07:05:25.217Z,82.43
2023-06-29T07:06:25.966Z,82.73
2023-06-29T07:07:25.211Z,82.23
2023-06-29T07:08:25.252Z,82.93
2023-06-29T07:09:25.258Z,81.93
2023-06-29T07:10:25.258Z,82.23
2023-06-29T07:11:25.163Z,81.93
2023-06-29T07:12:25.168Z,81.93
2023-06-29T07:13:25.182Z,82.53
2023-06-29T07:14:25.174Z,82.43
2023-06-29T07:15:25.122Z,82.33
2023-06-29T07:16:25.140Z,82.73
2023-06-29T07:17:25.142Z,82.63
2023-06-29T07:18:25.079Z,82.03
2023-06-29T07:21:26.174Z,83.33
2023-06-29T07:24:25.036Z,82.23
2023-06-29T07:25:24.944Z,82.63
2023-06-29T07:26:25.006Z,81.53
2023-06-29T07:27:24.952Z,82.13
2023-06-29T07:28:24.979Z,82.23
2023-06-29T07:29:25.009Z,82.73
2023-06-29T07:30:25.057Z,82.73
2023-06-29T07:31:25.076Z,82.43
2023-06-29T07:32:24.933Z,82.83
2023-06-29T07:33:24.842Z,82.83
2023-06-29T07:34:24.872Z,82.33
2023-06-29T07:35:24.808Z,82.49
2023-06-29T07:36:24.826Z,82.13
2023-06-29T07:37:24.807Z,81.99
2023-06-29T07:38:24.886Z,81.53
2023-06-29T07:39:24.795Z,81.83
2023-06-29T07:40:24.823Z,82.59
2023-06-29T07:41:24.792Z,82.39
2023-06-29T07:42:37.965Z,82.13
2023-06-29T07:43:25.789Z,82.53
2023-06-29T07:44:24.704Z,81.63
2023-06-29T07:45:24.764Z,82.09
2023-06-29T07:46:24.708Z,81.73
2023-06-29T07:47:24.785Z,82.29
2023-06-29T07:48:24.768Z,82.09
2023-06-29T07:49:24.658Z,82.19
2023-06-29T07:50:24.791Z,82.19
2023-06-29T07:51:24.616Z,81.39
2023-06-29T07:52:24.643Z,81.29
2023-06-29T07:53:24.600Z,81.89
2023-06-29T07:54:24.691Z,81.95
2023-06-29T07:55:24.634Z,81.75
2023-06-29T07:56:25.056Z,81.56
2023-06-29T07:59:24.523Z,81.51
2023-06-29T08:00:24.572Z,80.71
2023-06-29T08:01:24.568Z,81.27
2023-06-29T08:02:24.487Z,80.58
2023-06-29T08:03:24.458Z,79.38
2023-06-29T08:07:24.460Z,81.24
2023-06-29T08:08:24.550Z,80.64
2023-06-29T08:09:24.369Z,79.84
2023-06-29T08:10:24.375Z,80.24
2023-06-29T08:11:24.423Z,78.94
2023-06-29T08:12:24.333Z,78.54
2023-06-29T08:13:24.379Z,78.64
2023-06-29T08:14:24.358Z,79.14
2023-06-29T08:15:24.322Z,79.64
2023-06-29T08:16:24.342Z,79.78
2023-06-29T08:17:24.397Z,80.27
2023-06-29T08:18:24.336Z,80.68
2023-06-29T08:19:24.298Z,80.18
2023-06-29T08:20:24.340Z,79.08
2023-06-29T08:21:24.200Z,79.08
2023-06-29T08:22:24.190Z,79.38
2023-06-29T08:23:24.184Z,79.88
2023-06-29T08:24:24.194Z,79.88
2023-06-29T08:25:24.240Z,80.08
2023-06-29T08:26:24.147Z,80.47
2023-06-29T08:27:24.249Z,80.77
2023-06-29T08:28:24.240Z,80.38
2023-06-29T08:29:24.165Z,80.47
2023-06-29T08:30:24.166Z,80.77
2023-06-29T08:31:24.190Z,81.37
2023-06-29T08:32:24.213Z,81.41
2023-06-29T08:33:24.147Z,81.12
2023-06-29T08:34:24.147Z,81.51
2023-06-29T08:35:24.025Z,81.51
2023-06-29T08:36:24.092Z,81.65
2023-06-29T08:37:24.019Z,81.25
2023-06-29T08:38:24.072Z,81.75
2023-06-29T08:39:24.021Z,82.15
2023-06-29T08:40:24.006Z,82.95
2023-06-29T08:41:23.944Z,83.05
2023-06-29T08:42:24.019Z,83.25
2023-06-29T08:43:23.978Z,83.15
2023-06-29T08:44:23.927Z,82.85
2023-06-29T08:45:23.940Z,82.35
2023-06-29T08:46:23.924Z,83.15
2023-06-29T08:47:23.964Z,83.65
2023-06-29T08:48:23.900Z,83.65
2023-06-29T08:49:23.872Z,83.85
2023-06-29T08:50:23.833Z,84.09
2023-06-29T08:51:24.154Z,83.79
2023-06-29T08:52:23.973Z,83.69
2023-06-29T08:53:23.831Z,83.69
2023-06-29T08:54:23.857Z,84.09
2023-06-29T08:55:23.782Z,84.19
2023-06-29T08:56:23.732Z,84.39
2023-06-29T08:57:23.793Z,84.39
2023-06-29T08:58:23.886Z,84.79
2023-06-29T08:59:23.761Z,83.39
2023-06-29T09:00:23.736Z,84.39
2023-06-29T09:01:23.738Z,83.59
2023-06-29T09:02:23.774Z,83.79
2023-06-29T09:03:23.815Z,82.99
2023-06-29T09:04:23.701Z,83.49
2023-06-29T09:05:23.670Z,83.29
2023-06-29T09:06:23.750Z,83.29
2023-06-29T09:07:23.670Z,83.19
2023-06-29T09:08:23.583Z,83.39
2023-06-29T09:09:23.571Z,83.39
2023-06-29T09:10:24.213Z,83.79
2023-06-29T09:11:23.700Z,83.69
2023-06-29T09:12:23.541Z,83.99
2023-06-29T09:13:23.496Z,83.49
2023-06-29T09:14:23.574Z,83.49
2023-06-29T09:15:23.453Z,83.69
2023-06-29T09:16:23.504Z,83.99
2023-06-29T09:17:23.583Z,83.89
2023-06-29T09:18:23.505Z,84.55
2023-06-29T09:19:23.412Z,84.95
2023-06-29T09:20:37.989Z,84.35
2023-06-29T09:21:23.358Z,84.25
2023-06-29T09:22:23.563Z,83.05
2023-06-29T09:23:23.401Z,83.25
2023-06-29T09:24:23.366Z,83.15
2023-06-29T09:25:33.178Z,82.65
2023-06-29T09:26:24.383Z,82.25
2023-06-29T09:27:23.446Z,82.41
2023-06-29T09:28:23.399Z,82.61
2023-06-29T09:29:23.363Z,82.61
2023-06-29T09:30:23.246Z,82.87
2023-06-29T09:31:23.273Z,82.17
2023-06-29T09:32:23.365Z,82.37
2023-06-29T09:33:23.264Z,81.77
2023-06-29T09:34:23.228Z,82.57
2023-06-29T09:35:23.531Z,81.98
2023-06-29T09:36:23.230Z,81.67
2023-06-29T09:37:23.167Z,80.47
2023-06-29T09:38:23.125Z,80.58
2023-06-29T09:39:23.144Z,80.83
2023-06-29T09:40:23.170Z,81.04
2023-06-29T09:41:23.111Z,79.34
2023-06-29T09:42:23.158Z,79.54
2023-06-29T09:43:23.112Z,79.64
2023-06-29T09:44:23.138Z,80.30
2023-06-29T09:45:23.040Z,81.90
2023-06-29T09:46:23.184Z,79.27
2023-06-29T09:49:23.255Z,79.03
2023-06-29T09:50:23.250Z,78.79
2023-06-29T09:51:23.181Z,78.49
2023-06-29T09:52:23.047Z,77.89
2023-06-29T09:53:22.955Z,76.79
2023-06-29T09:54:23.028Z,78.09
2023-06-29T09:55:22.913Z,78.25
2023-06-29T09:56:22.971Z,77.95
2023-06-29T09:57:22.904Z,78.12
2023-06-29T09:58:22.906Z,77.92
2023-06-29T09:59:22.944Z,76.72
2023-06-29T10:00:22.900Z,77.12
2023-06-29T10:01:22.887Z,75.83
2023-06-29T10:02:22.956Z,74.33
2023-06-29T10:03:22.859Z,74.20
2023-06-29T10:04:22.882Z,75.29
2023-06-29T10:05:22.825Z,75.40
2023-06-29T10:06:22.820Z,77.75
2023-06-29T10:07:22.834Z,73.86
2023-06-29T10:08:22.768Z,72.81
2023-06-29T10:09:22.733Z,74.26
2023-06-29T10:10:22.757Z,74.66
2023-06-29T10:11:22.762Z,74.00
2023-06-29T10:12:22.748Z,74.50
2023-06-29T10:13:22.692Z,73.00
2023-06-29T10:14:22.749Z,73.21
2023-06-29T10:15:22.661Z,74.20
2023-06-29T10:16:22.771Z,73.97
2023-06-29T10:17:22.740Z,74.46
2023-06-29T10:18:22.668Z,74.37
2023-06-29T10:19:22.618Z,74.73
2023-06-29T10:20:22.643Z,75.92
2023-06-29T10:21:22.679Z,75.59
2023-06-29T10:22:22.552Z,75.29
2023-06-29T10:23:23.564Z,73.20
2023-06-29T10:24:22.613Z,72.50
2023-06-29T10:25:22.507Z,73.16
2023-06-29T10:26:22.545Z,72.57
2023-06-29T10:27:22.567Z,73.56
2023-06-29T10:28:22.542Z,72.77
2023-06-29T10:29:24.194Z,72.77
2023-06-29T10:30:22.471Z,73.33
2023-06-29T10:31:22.493Z,70.95
2023-06-29T10:32:22.509Z,71.25
2023-06-29T10:33:22.404Z,69.95
2023-06-29T10:34:22.390Z,70.58
2023-06-29T10:35:23.994Z,71.08
2023-06-29T10:36:22.368Z,71.18
2023-06-29T10:37:22.340Z,72.57
2023-06-29T10:38:22.360Z,70.68
2023-06-29T10:39:22.463Z,69.99
2023-06-29T10:40:22.349Z,70.88
2023-06-29T10:41:22.350Z,71.48
2023-06-29T10:42:22.311Z,71.94
2023-06-29T10:43:22.282Z,72.63
2023-06-29T10:44:22.237Z,70.06
2023-06-29T10:45:22.253Z,68.96
2023-06-29T10:46:22.355Z,69.46
2023-06-29T10:47:22.296Z,70.18
2023-06-29T10:48:43.036Z,70.09
2023-06-29T10:49:23.306Z,69.20
2023-06-29T10:50:22.207Z,70.52
2023-06-29T10:51:22.231Z,70.32
2023-06-29T10:52:22.184Z,72.04
2023-06-29T10:53:22.186Z,72.94
2023-06-29T10:54:22.183Z,73.54
2023-06-29T10:55:22.175Z,73.37
2023-06-29T10:56:22.144Z,72.77
2023-06-29T10:57:22.068Z,73.30
2023-06-29T10:58:22.067Z,74.30
2023-06-29T10:59:22.090Z,74.13
2023-06-29T11:00:22.036Z,74.27
2023-06-29T11:01:22.121Z,74.27
2023-06-29T11:02:22.174Z,74.97
2023-06-29T11:03:22.098Z,76.30
2023-06-29T11:04:22.119Z,77.39
2023-06-29T11:05:22.023Z,77.20
2023-06-29T11:06:33.576Z,77.20
2023-06-29T11:07:23.022Z,77.63
2023-06-29T11:08:22.002Z,77.43
2023-06-29T11:09:21.985Z,76.54
2023-06-29T11:10:21.928Z,76.93
2023-06-29T11:11:21.930Z,76.83
2023-06-29T11:12:21.887Z,77.63
2023-06-29T11:13:21.858Z,76.34
2023-06-29T11:14:21.868Z,76.34
2023-06-29T11:15:21.941Z,76.54
2023-06-29T11:16:21.845Z,76.34
2023-06-29T11:17:21.971Z,77.13
2023-06-29T11:18:22.385Z,77.13
2023-06-29T11:19:25.039Z,76.93
2023-06-29T11:20:23.462Z,78.43
2023-06-29T11:21:25.244Z,78.43
2023-06-29T11:22:24.046Z,79.03
2023-06-29T11:23:24.560Z,78.86
2023-06-29T11:24:21.766Z,79.27
2023-06-29T11:25:21.736Z,79.36
2023-06-29T11:26:21.686Z,80.86
2023-06-29T11:27:21.732Z,79.57
2023-06-29T11:28:21.655Z,78.60
2023-06-29T11:29:21.674Z,78.00
2023-06-29T11:30:21.695Z,78.70
2023-06-29T11:31:21.641Z,79.90
2023-06-29T11:32:21.643Z,79.80
2023-06-29T11:33:33.494Z,80.40
2023-06-29T11:34:22.593Z,79.10
2023-06-29T11:35:21.570Z,79.20
2023-06-29T11:36:21.709Z,80.20
2023-06-29T11:37:23.834Z,80.70
2023-06-29T11:38:21.590Z,81.10
2023-06-29T11:39:21.536Z,80.40
2023-06-29T11:40:21.549Z,80.80
2023-06-29T11:41:21.514Z,81.40
2023-06-29T11:42:21.477Z,80.80
2023-06-29T11:43:24.138Z,80.90
2023-06-29T11:44:21.498Z,81.60
2023-06-29T11:45:21.444Z,81.99
2023-06-29T11:46:21.522Z,80.30
2023-06-29T11:47:32.845Z,80.60
2023-06-29T11:48:22.429Z,81.66
2023-06-29T11:49:22.947Z,81.85
2023-06-29T11:50:21.428Z,81.66
2023-06-29T11:51:21.374Z,82.35
2023-06-29T11:52:21.329Z,82.15
2023-06-29T11:53:21.371Z,81.36
2023-06-29T11:54:21.306Z,80.36
2023-06-29T11:55:23.642Z,79.93
2023-06-29T11:56:21.324Z,80.32
2023-06-29T11:57:21.259Z,81.18
2023-06-29T11:58:21.250Z,80.18
2023-06-29T11:59:21.260Z,80.68
2023-06-29T12:00:21.385Z,80.29
2023-06-29T12:01:22.618Z,79.58
2023-06-29T12:02:21.319Z,80.08
2023-06-29T12:03:21.335Z,79.99
2023-06-29T12:04:21.331Z,79.25
2023-06-29T12:05:21.178Z,79.35
2023-06-29T12:06:21.340Z,79.25
2023-06-29T12:07:21.278Z,79.35
2023-06-29T12:08:21.241Z,79.35
2023-06-29T12:09:21.196Z,78.61
2023-06-29T12:10:21.170Z,77.72
2023-06-29T12:11:22.977Z,77.22
2023-06-29T12:12:21.157Z,78.22
2023-06-29T12:13:21.159Z,77.82
2023-06-29T12:14:21.103Z,77.98
2023-06-29T12:15:21.174Z,77.38
2023-06-29T12:18:21.210Z,73.77
2023-06-29T12:19:29.765Z,75.82
2023-06-29T12:20:21.277Z,75.92
2023-06-29T12:21:21.210Z,76.28
2023-06-29T12:22:20.957Z,74.76
2023-06-29T12:23:20.947Z,74.02
2023-06-29T12:24:20.885Z,73.00
2023-06-29T12:25:20.980Z,72.86
2023-06-29T12:26:20.897Z,72.23
2023-06-29T12:27:20.880Z,70.25
2023-06-29T12:28:20.877Z,70.94
2023-06-29T12:29:20.862Z,71.97
2023-06-29T12:30:20.847Z,68.99
2023-06-29T12:31:20.879Z,69.53
2023-06-29T12:32:20.862Z,68.96
2023-06-29T12:33:20.791Z,69.46
2023-06-29T12:34:20.805Z,68.96
2023-06-29T12:35:20.835Z,70.75
2023-06-29T12:36:20.800Z,70.25
2023-06-29T12:37:20.732Z,70.95
2023-06-29T12:38:20.738Z,69.43
2023-06-29T12:39:20.761Z,70.72
2023-06-29T12:40:20.696Z,67.64
2023-06-29T12:41:20.798Z,68.93
2023-06-29T12:42:20.694Z,68.24
2023-06-29T12:43:20.668Z,69.43
2023-06-29T12:44:20.644Z,69.49
2023-06-29T12:45:20.734Z,70.25
2023-06-29T12:46:20.673Z,66.25
2023-06-29T12:47:20.676Z,67.05
2023-06-29T12:48:20.664Z,66.16
2023-06-29T12:49:20.556Z,66.42
2023-06-29T12:50:20.575Z,66.22
2023-06-29T12:51:20.671Z,69.39
2023-06-29T12:52:20.545Z,67.02
2023-06-29T12:53:20.570Z,66.95
2023-06-29T12:54:20.500Z,67.44
2023-06-29T12:55:20.589Z,70.15
2023-06-29T12:56:20.535Z,69.26
2023-06-29T12:57:20.520Z,67.38
2023-06-29T12:58:20.453Z,68.37
2023-06-29T12:59:20.492Z,69.98
2023-06-29T13:00:20.464Z,66.91
2023-06-29T13:01:20.517Z,68.40
2023-06-29T13:02:20.431Z,68.93
2023-06-29T13:03:20.595Z,67.24
2023-06-29T13:04:20.446Z,68.13
2023-06-29T13:05:20.370Z,69.65